Time;durP1;ratioP1;P1;durP2;ratioP2;P2;SDS_P1;SDS_P2;PMS_P1;PMS_P2;Temp;Humidity;BMP_temperature;BMP_pressure;BME280_temperature;BME280_humidity;BME280_pressure;Samples;Min_cycle;Max_cycle;Signal;HPM_P1;HPM_P2
2022/05/27 00:01:09;;;;;;;3.38;2.78;;;;;;;20.79;52.23;95424.31;5115127;28;20208;-71
2022/05/27 00:03:36;;;;;;;2.88;2.42;;;;;;;20.76;52.40;95427.94;5115508;28;20195;-71
2022/05/27 00:06:03;;;;;;;4.40;2.50;;;;;;;20.77;52.32;95423.91;5116095;28;20216;-71
2022/05/27 00:08:30;;;;;;;3.97;2.80;;;;;;;20.76;52.32;95430.75;5115111;28;20188;-71
2022/05/27 00:10:58;;;;;;;3.25;2.60;;;;;;;20.76;52.85;95431.53;5115508;28;20183;-71
2022/05/27 00:13:25;;;;;;;3.03;2.72;;;;;;;20.73;52.77;95437.97;5115718;28;20579;-71
2022/05/27 00:23:30;;;;;;;3.42;2.60;;;;;;;20.68;52.16;95430.78;5093017;27;20924;-70
2022/05/27 00:25:56;;;;;;;4.75;3.10;;;;;;;20.66;52.09;95427.63;5092794;28;20185;-70
2022/05/27 00:28:23;;;;;;;2.88;2.67;;;;;;;20.66;52.18;95421.19;5092755;28;20249;-70
2022/05/27 00:30:50;;;;;;;2.95;2.75;;;;;;;20.67;52.18;95428.41;5125831;28;20196;-71
2022/05/27 00:33:17;;;;;;;2.90;2.70;;;;;;;20.64;51.99;95418.81;5125683;28;20207;-71
2022/05/27 00:35:44;;;;;;;4.20;3.00;;;;;;;20.65;52.06;95420.41;5092585;28;20199;-71
2022/05/27 00:38:10;;;;;;;3.65;2.90;;;;;;;20.64;52.41;95424.41;5091605;28;20200;-71
2022/05/27 00:40:40;;;;;;;3.35;3.05;;;;;;;20.63;52.68;95422.81;5092233;28;20529;-71
2022/05/27 00:43:07;;;;;;;3.53;3.22;;;;;;;20.58;53.13;95419.66;5092338;28;20215;-71
2022/05/27 00:45:36;;;;;;;4.05;3.22;;;;;;;20.54;52.93;95424.47;5091118;28;20192;-71
2022/05/27 00:48:05;;;;;;;3.88;2.80;;;;;;;20.52;52.62;95415.69;5092284;28;20188;-70
2022/05/27 00:50:34;;;;;;;5.70;4.22;;;;;;;20.49;53.50;95420.06;5091322;28;20199;-71
2022/05/27 00:53:03;;;;;;;5.03;3.83;;;;;;;20.40;53.83;95416.91;5092147;28;20184;-70
2022/05/27 00:55:33;;;;;;;4.20;3.75;;;;;;;20.30;54.27;95424.19;5092176;28;20192;-70
2022/05/27 00:58:07;;;;;;;4.80;3.30;;;;;;;20.27;54.44;95418.59;5091819;28;20200;-70
2022/05/27 01:00:34;;;;;;;7.05;4.03;;;;;;;20.25;54.74;95418.19;5090827;28;20211;-71
2022/05/27 01:03:02;;;;;;;4.05;3.58;;;;;;;20.18;54.94;95419.00;5090738;28;20247;-71
2022/05/27 01:05:29;;;;;;;4.47;3.20;;;;;;;20.14;55.01;95415.44;5091649;28;20645;-71
2022/05/27 01:07:58;;;;;;;3.45;3.15;;;;;;;20.08;55.16;95415.06;5091685;28;20578;-71
2022/05/27 01:10:25;;;;;;;5.25;3.53;;;;;;;20.05;54.70;95427.09;5091939;28;20203;-71
2022/05/27 01:13:03;;;;;;;5.03;3.42;;;;;;;20.03;54.86;95418.28;5091840;28;20185;-71
2022/05/27 01:15:35;;;;;;;3.90;3.10;;;;;;;20.03;53.95;95409.88;5091788;28;20200;-71
2022/05/27 01:18:13;;;;;;;4.05;3.50;;;;;;;20.05;54.72;95403.91;5091171;28;20201;-71
2022/05/27 01:20:45;;;;;;;4.25;3.35;;;;;;;20.01;54.82;95406.72;5091501;28;20180;-71
2022/05/27 01:23:50;;;;;;;3.75;3.22;;;;;;;20.02;53.86;95404.69;5091698;28;20251;-70
2022/05/27 01:26:42;;;;;;;5.57;4.07;;;;;;;19.97;55.35;95400.28;5090778;28;20193;-70
2022/05/27 01:29:32;;;;;;;4.95;3.83;;;;;;;19.87;55.63;95407.56;5124686;28;20219;-70
2022/05/27 01:32:03;;;;;;;5.93;4.60;;;;;;;19.80;55.82;95398.38;5091495;28;20188;-70
2022/05/27 01:34:36;;;;;;;8.65;5.50;;;;;;;19.70;56.03;95400.00;5079092;28;20204;-70
2022/05/27 01:37:07;;;;;;;6.78;5.22;;;;;;;19.67;56.00;95398.00;5077846;28;20194;-70
2022/05/27 01:39:38;;;;;;;9.65;5.30;;;;;;;19.62;56.40;95398.41;5077009;28;20197;-70
2022/05/27 01:42:11;;;;;;;7.63;4.78;;;;;;;19.58;56.47;95397.63;5077457;28;20213;-71
2022/05/27 01:44:43;;;;;;;9.10;4.90;;;;;;;19.53;56.97;95395.22;5077898;28;20189;-71
2022/05/27 01:47:15;;;;;;;8.18;4.53;;;;;;;19.50;57.09;95391.25;5110668;28;20205;-71
2022/05/27 01:49:45;;;;;;;6.75;4.57;;;;;;;19.48;57.29;95396.44;5110727;28;20204;-71
2022/05/27 01:52:16;;;;;;;7.20;4.75;;;;;;;19.44;57.12;95390.84;5077662;28;20185;-71
2022/05/27 01:54:50;;;;;;;5.35;4.15;;;;;;;19.39;57.36;95388.47;5076353;28;20189;-71
2022/05/27 01:57:20;;;;;;;6.35;4.22;;;;;;;19.36;57.49;95391.25;5077550;28;20189;-71
2022/05/27 01:59:57;;;;;;;5.07;4.35;;;;;;;19.33;57.59;95390.06;5077538;28;20193;-71
2022/05/27 02:02:28;;;;;;;3.90;3.40;;;;;;;19.29;57.26;95396.88;5077340;28;20212;-71
2022/05/27 02:04:58;;;;;;;5.03;3.88;;;;;;;19.21;57.85;95390.50;5077345;28;20185;-71
2022/05/27 02:07:29;;;;;;;6.10;4.35;;;;;;;19.22;57.34;95397.66;5077634;28;20181;-71
2022/05/27 02:09:59;;;;;;;5.55;4.00;;;;;;;19.17;57.31;95395.25;5077005;28;20189;-71
2022/05/27 02:12:30;;;;;;;5.90;5.10;;;;;;;19.12;57.04;95393.66;5077082;28;20189;-71
2022/05/27 02:15:01;;;;;;;5.15;4.45;;;;;;;19.06;57.19;95386.09;5076790;28;20544;-71
2022/05/27 02:17:33;;;;;;;7.05;4.93;;;;;;;19.00;57.09;95391.28;5110207;28;20266;-71
2022/05/27 02:20:03;;;;;;;7.10;4.28;;;;;;;18.93;57.27;95394.88;5110315;28;20201;-71
2022/05/27 02:22:32;;;;;;;7.07;4.60;;;;;;;18.95;57.53;95397.25;5076592;28;20240;-71
2022/05/27 02:25:01;;;;;;;5.03;3.88;;;;;;;18.95;57.50;95395.28;5076999;28;20204;-71
2022/05/27 02:27:31;;;;;;;6.70;5.47;;;;;;;18.94;57.68;95398.47;5077243;28;20255;-71
2022/05/27 02:30:02;;;;;;;6.38;4.95;;;;;;;18.88;57.73;95395.28;5076405;28;20535;-72
2022/05/27 02:32:33;;;;;;;9.65;5.28;;;;;;;18.87;57.94;95395.66;5076093;28;20193;-71
2022/05/27 02:35:08;;;;;;;5.72;4.88;;;;;;;18.86;57.42;95397.69;5076730;28;20208;-71
2022/05/27 02:37:38;;;;;;;6.70;4.47;;;;;;;18.84;57.61;95404.84;5076018;28;20291;-71
2022/05/27 02:40:08;;;;;;;4.70;4.30;;;;;;;18.82;57.44;95408.06;5075984;28;20193;-71
2022/05/27 02:42:37;;;;;;;4.75;4.00;;;;;;;18.79;57.50;95405.25;5075790;28;20266;-71
2022/05/27 02:45:13;;;;;;;5.90;4.10;;;;;;;18.71;57.13;95405.25;5075190;28;20193;-71
2022/05/27 02:47:48;;;;;;;4.30;3.63;;;;;;;18.68;57.29;95397.63;5076313;28;20623;-71
2022/05/27 02:50:20;;;;;;;6.43;3.80;;;;;;;18.65;57.50;95401.22;5076488;28;20189;-71
2022/05/27 02:52:53;;;;;;;6.53;4.50;;;;;;;18.64;57.74;95396.03;5075004;28;20216;-71
2022/05/27 02:55:25;;;;;;;5.68;4.10;;;;;;;18.65;57.62;95404.00;5076064;28;20185;-71
2022/05/27 02:57:54;;;;;;;4.82;3.85;;;;;;;18.65;57.73;95403.22;5076305;28;20242;-71
2022/05/27 03:00:23;;;;;;;8.15;4.25;;;;;;;18.67;57.66;95401.63;5076332;28;20220;-70
2022/05/27 03:02:53;;;;;;;6.05;4.45;;;;;;;18.67;57.42;95410.00;5076069;28;20201;-70
2022/05/27 03:05:22;;;;;;;4.90;3.90;;;;;;;18.66;57.09;95404.81;5075336;28;20201;-70
2022/05/27 03:08:00;;;;;;;7.45;4.32;;;;;;;18.65;57.04;95404.00;5075964;28;20593;-71
2022/05/27 03:10:45;;;;;;;5.32;4.00;;;;;;;18.64;57.16;95402.41;5076316;28;20192;-69
2022/05/27 03:13:25;;;;;;;5.65;3.60;;;;;;;18.66;56.83;95411.19;5076111;28;20193;-69
2022/05/27 03:16:00;;;;;;;5.65;3.90;;;;;;;18.68;56.54;95411.59;5075813;28;20608;-70
2022/05/27 03:18:38;;;;;;;8.63;3.90;;;;;;;18.67;56.38;95410.00;5075986;28;20200;-69
2022/05/27 03:21:11;;;;;;;5.72;3.65;;;;;;;18.68;56.26;95406.00;5074661;28;20233;-70
2022/05/27 03:23:54;;;;;;;6.40;3.42;;;;;;;18.68;56.48;95408.00;5075597;28;20270;-70
2022/05/27 03:26:27;;;;;;;4.22;3.75;;;;;;;18.70;56.57;95409.22;5075491;28;20203;-70
2022/05/27 03:29:01;;;;;;;10.35;8.30;;;;;;;18.66;57.80;95407.59;5075709;28;20185;-69
2022/05/27 03:31:31;;;;;;;12.75;9.60;;;;;;;18.63;58.11;95414.78;5075809;28;20197;-70
2022/05/27 03:34:07;;;;;;;9.55;8.00;;;;;;;18.53;57.81;95418.38;5075746;28;20236;-70
2022/05/27 03:36:38;;;;;;;8.63;7.68;;;;;;;18.49;58.17;95415.56;5075313;28;20193;-70
2022/05/27 03:39:09;;;;;;;9.60;7.03;;;;;;;18.51;58.40;95409.56;5074413;28;20204;-70
2022/05/27 03:41:38;;;;;;;8.57;6.90;;;;;;;18.53;58.97;95413.56;5075311;28;20193;-70
2022/05/27 03:44:06;;;;;;;10.25;6.80;;;;;;;18.55;58.57;95409.56;5074699;28;20228;-69
2022/05/27 03:46:35;;;;;;;8.23;6.13;;;;;;;18.55;58.70;95415.16;5075854;28;20189;-74
2022/05/27 03:49:04;;;;;;;7.05;6.18;;;;;;;18.56;58.45;95412.00;5075483;28;20207;-70
2022/05/27 03:51:33;;;;;;;7.22;5.18;;;;;;;18.49;59.04;95407.19;5074944;28;20201;-69
2022/05/27 03:54:05;;;;;;;7.95;4.90;;;;;;;18.48;59.26;95408.38;5075454;28;20190;-69
2022/05/27 03:56:33;;;;;;;8.73;5.05;;;;;;;18.50;59.34;95407.97;5074441;28;20283;-69
2022/05/27 03:59:00;;;;;;;5.32;4.22;;;;;;;18.50;59.15;95407.97;5075295;28;20196;-69
2022/05/27 04:01:29;;;;;;;4.40;4.00;;;;;;;18.52;58.87;95405.59;5074726;28;20201;-69
2022/05/27 04:03:57;;;;;;;8.15;4.50;;;;;;;18.50;59.02;95405.19;5074388;28;20244;-69
2022/05/27 04:06:25;;;;;;;8.00;4.50;;;;;;;18.47;58.68;95408.75;5075340;28;20192;-69
2022/05/27 04:08:53;;;;;;;5.85;4.22;;;;;;;18.45;59.00;95411.97;5075246;28;20250;-69
2022/05/27 04:11:20;;;;;;;6.78;4.28;;;;;;;18.48;59.02;95413.16;5074259;28;20200;-69
2022/05/27 04:13:47;;;;;;;7.00;4.85;;;;;;;18.50;59.65;95417.16;5075221;28;20553;-69
2022/05/27 04:16:14;;;;;;;6.72;4.32;;;;;;;18.50;59.33;95414.34;5074277;28;20196;-69
2022/05/27 04:18:41;;;;;;;8.77;4.80;;;;;;;18.50;59.23;95408.78;5074353;28;20512;-69
2022/05/27 04:21:08;;;;;;;5.03;4.20;;;;;;;18.48;59.39;95410.34;5057374;28;20207;-69
2022/05/27 04:23:37;;;;;;;5.22;4.20;;;;;;;18.45;59.41;95411.16;5074760;28;20216;-69
2022/05/27 04:26:04;;;;;;;4.75;4.07;;;;;;;18.44;59.60;95415.13;5074358;28;20209;-69
2022/05/27 04:28:33;;;;;;;5.85;4.55;;;;;;;18.46;59.69;95419.13;5074185;28;20587;-69
2022/05/27 04:31:00;;;;;;;8.88;4.45;;;;;;;18.45;60.27;95409.16;5074740;28;20204;-69
2022/05/27 04:33:28;;;;;;;8.93;6.22;;;;;;;18.48;59.82;95418.72;5075119;28;20196;-69
2022/05/27 04:35:55;;;;;;;7.53;5.65;;;;;;;18.48;59.97;95415.94;5074047;28;20258;-69
2022/05/27 04:38:22;;;;;;;6.53;4.82;;;;;;;18.51;59.83;95413.16;5073784;28;20255;-69
2022/05/27 04:40:50;;;;;;;7.90;4.90;;;;;;;18.56;59.95;95416.78;5074866;28;20201;-69
2022/05/27 04:43:17;;;;;;;6.68;4.60;;;;;;;18.55;59.44;95415.94;5074872;28;20212;-69
2022/05/27 04:45:44;;;;;;;5.82;4.70;;;;;;;18.57;59.83;95419.16;5074859;28;20193;-69
2022/05/27 04:48:12;;;;;;;11.63;4.70;;;;;;;18.59;59.37;95418.75;5107659;28;20204;-69
2022/05/27 04:50:39;;;;;;;6.40;4.32;;;;;;;18.61;60.13;95419.97;5074913;28;20185;-69
2022/05/27 04:53:06;;;;;;;5.47;4.75;;;;;;;18.59;59.84;95424.34;5107343;28;20201;-69
2022/05/27 04:55:34;;;;;;;5.13;4.68;;;;;;;18.56;60.21;95420.38;5074789;28;20185;-69
2022/05/27 04:58:03;;;;;;;5.88;5.35;;;;;;;18.55;60.43;95415.94;5074133;28;20204;-69
2022/05/27 05:00:31;;;;;;;8.43;5.22;;;;;;;18.57;60.06;95412.78;5074882;28;20269;-69
2022/05/27 05:02:58;;;;;;;6.43;4.78;;;;;;;18.57;60.13;95416.38;5074219;28;20220;-69
2022/05/27 05:05:27;;;;;;;6.60;5.45;;;;;;;18.58;59.91;95406.78;5074319;28;20507;-69
2022/05/27 05:07:58;;;;;;;5.28;4.82;;;;;;;18.61;60.25;95411.59;5073756;28;20561;-69
2022/05/27 05:10:25;;;;;;;6.43;4.57;;;;;;;18.63;60.07;95405.63;5111395;28;20593;-69
2022/05/27 05:12:52;;;;;;;6.15;5.55;;;;;;;18.66;60.27;95405.59;5077965;28;20189;-69
2022/05/27 05:15:22;;;;;;;7.28;5.00;;;;;;;18.69;59.96;95406.81;5078059;28;20232;-69
2022/05/27 05:17:49;;;;;;;5.65;5.03;;;;;;;18.78;59.19;95412.06;5078221;28;20197;-69
2022/05/27 05:20:18;;;;;;;7.28;4.28;;;;;;;18.85;58.69;95409.25;5077362;28;20193;-69
2022/05/27 05:22:45;;;;;;;5.45;4.38;;;;;;;18.92;58.61;95417.66;5076575;28;20656;-69
2022/05/27 05:25:12;;;;;;;6.70;4.20;;;;;;;18.94;58.78;95410.44;5078149;28;20192;-69
2022/05/27 05:27:41;;;;;;;3.72;3.42;;;;;;;19.00;58.20;95408.84;5077833;28;20185;-69
2022/05/27 05:30:10;;;;;;;6.13;4.22;;;;;;;19.05;58.20;95407.66;5077359;28;20212;-69
2022/05/27 05:32:39;;;;;;;5.78;3.85;;;;;;;19.08;58.74;95400.47;5077062;28;20578;-69
2022/05/27 05:35:06;;;;;;;4.50;4.10;;;;;;;19.10;58.93;95392.47;5077902;28;20177;-69
2022/05/27 05:37:33;;;;;;;5.95;3.97;;;;;;;19.14;59.07;95398.88;5077928;28;20181;-69
2022/05/27 05:40:00;;;;;;;5.82;4.30;;;;;;;19.19;59.35;95404.84;5077312;28;20207;-69
2022/05/27 05:42:27;;;;;;;4.50;4.00;;;;;;;19.24;59.12;95406.44;5077776;28;20204;-69
2022/05/27 05:44:55;;;;;;;5.00;3.83;;;;;;;19.27;58.88;95413.22;5077703;28;20216;-69
2022/05/27 05:47:22;;;;;;;4.03;3.60;;;;;;;19.30;58.68;95402.03;5076979;28;20196;-69
2022/05/27 05:49:50;;;;;;;4.07;3.58;;;;;;;19.32;58.06;95398.84;5078053;28;20189;-69
2022/05/27 05:52:18;;;;;;;3.42;3.13;;;;;;;19.35;57.96;95409.22;5077390;28;20537;-69
2022/05/27 05:54:45;;;;;;;5.15;3.25;;;;;;;19.39;57.22;95404.41;5110438;28;20201;-69
2022/05/27 05:57:12;;;;;;;4.07;3.10;;;;;;;19.41;57.04;95413.22;5077237;28;20257;-69
2022/05/27 05:59:39;;;;;;;4.95;3.80;;;;;;;19.42;57.18;95412.00;5077652;28;20173;-69
2022/05/27 06:02:07;;;;;;;4.15;3.83;;;;;;;19.45;57.85;95414.00;5077460;28;20192;-69
2022/05/27 06:04:34;;;;;;;4.57;4.13;;;;;;;19.47;57.67;95408.81;5077446;28;20205;-69
2022/05/27 06:07:04;;;;;;;4.60;3.45;;;;;;;19.51;58.31;95412.41;5076960;28;20538;-69
2022/05/27 06:09:31;;;;;;;3.53;3.22;;;;;;;19.54;57.48;95408.81;5076618;28;20216;-69
2022/05/27 06:12:02;;;;;;;3.95;3.40;;;;;;;19.58;57.56;95408.81;5076132;28;20204;-69
2022/05/27 06:14:29;;;;;;;4.32;3.70;;;;;;;19.58;57.53;95406.81;5077278;28;20188;-69
2022/05/27 06:16:56;;;;;;;5.07;3.83;;;;;;;19.59;57.70;95410.38;5076903;28;20193;-69
2022/05/27 06:19:22;;;;;;;3.78;3.47;;;;;;;19.64;57.53;95405.19;5076056;28;20204;-69
2022/05/27 06:21:49;;;;;;;4.07;3.20;;;;;;;19.65;57.13;95406.81;5076616;28;20774;-69
2022/05/27 06:24:18;;;;;;;5.05;3.70;;;;;;;19.69;57.24;95399.22;5110181;28;20209;-70
2022/05/27 06:26:45;;;;;;;5.53;3.10;;;;;;;19.71;56.34;95402.38;5076099;28;20209;-69
2022/05/27 06:34:40;;;;;;;6.53;4.07;;;;;;;19.76;55.86;95400.41;5076030;28;20193;-69
2022/05/27 06:37:09;;;;;;;3.95;3.53;;;;;;;19.82;56.63;95407.16;5076536;28;20192;-69
2022/05/27 06:39:38;;;;;;;4.43;4.03;;;;;;;19.88;56.54;95394.34;5075955;28;20575;-69
2022/05/27 06:42:07;;;;;;;4.85;4.28;;;;;;;19.95;56.70;95397.13;5076175;28;20197;-69
2022/05/27 06:44:34;;;;;;;3.97;3.42;;;;;;;19.99;55.23;95389.50;5076610;28;20209;-69
2022/05/27 06:47:01;;;;;;;3.75;3.30;;;;;;;20.04;55.24;95382.69;5076186;28;20605;-69
2022/05/27 06:49:28;;;;;;;4.03;3.33;;;;;;;20.09;55.10;95377.47;5075650;28;20204;-69
2022/05/27 06:51:55;;;;;;;3.90;3.60;;;;;;;20.14;55.21;95387.44;5109576;28;20201;-69
2022/05/27 06:54:22;;;;;;;3.97;3.38;;;;;;;20.16;55.41;95382.25;5076155;28;20182;-69
2022/05/27 06:56:52;;;;;;;3.63;3.05;;;;;;;20.15;53.89;95381.44;5109317;28;20609;-69
2022/05/27 06:59:20;;;;;;;3.47;3.08;;;;;;;20.16;53.96;95383.03;5076362;28;20197;-69
2022/05/27 07:01:47;;;;;;;4.13;3.10;;;;;;;20.18;53.75;95380.59;5075315;28;20193;-69
2022/05/27 07:04:14;;;;;;;3.20;2.90;;;;;;;20.24;53.52;95381.00;5076230;28;20423;-69
2022/05/27 07:06:43;;;;;;;3.53;3.22;;;;;;;20.27;53.81;95368.97;5109399;28;20197;-69
2022/05/27 07:09:11;;;;;;;3.58;3.28;;;;;;;20.29;54.01;95372.16;5075275;28;20193;-69
2022/05/27 07:11:38;;;;;;;3.63;3.33;;;;;;;20.34;54.14;95368.94;5075277;28;20190;-69
2022/05/27 07:14:06;;;;;;;4.22;3.33;;;;;;;20.38;53.82;95354.91;5076052;28;20280;-69
2022/05/27 07:16:33;;;;;;;3.78;3.42;;;;;;;20.41;53.89;95354.09;5075068;28;20628;-69
2022/05/27 07:19:00;;;;;;;4.00;3.70;;;;;;;20.46;54.07;95358.47;5108802;28;20540;-69
2022/05/27 07:21:27;;;;;;;5.32;3.38;;;;;;;20.52;54.20;95351.25;5075614;28;20240;-69
2022/05/27 07:23:55;;;;;;;5.78;3.72;;;;;;;20.56;54.49;95355.63;5075674;28;20227;-69
2022/05/27 07:26:22;;;;;;;3.80;3.50;;;;;;;20.61;54.39;95351.56;5074629;28;20210;-69
2022/05/27 07:28:49;;;;;;;3.53;3.17;;;;;;;20.66;53.66;95348.31;5074851;28;20192;-69
2022/05/27 07:31:18;;;;;;;6.22;3.53;;;;;;;20.68;53.48;95343.91;5075161;28;20189;-69
2022/05/27 07:33:45;;;;;;;4.25;3.35;;;;;;;20.70;53.65;95340.72;5075067;28;20517;-69
2022/05/27 07:36:13;;;;;;;6.65;6.00;;;;;;;20.77;54.61;95329.44;5075632;28;20272;-69
2022/05/27 07:38:40;;;;;;;4.00;3.70;;;;;;;20.80;54.29;95334.19;5075767;28;20596;-69
2022/05/27 07:41:07;;;;;;;5.10;3.33;;;;;;;20.83;54.16;95327.78;5075238;28;20197;-69
2022/05/27 07:43:34;;;;;;;3.45;3.15;;;;;;;20.87;54.65;95324.94;5074278;28;20193;-69
2022/05/27 07:46:01;;;;;;;5.25;3.60;;;;;;;20.90;54.31;95322.09;5075554;28;20186;-69
2022/05/27 07:48:29;;;;;;;3.85;3.53;;;;;;;20.93;53.95;95328.91;5076179;28;20185;-69
2022/05/27 07:50:56;;;;;;;3.67;3.25;;;;;;;20.98;55.36;95322.84;5075136;28;20184;-69
2022/05/27 07:53:23;;;;;;;4.75;3.70;;;;;;;21.08;54.53;95326.75;5074173;28;20205;-69
2022/05/27 07:55:50;;;;;;;4.32;3.92;;;;;;;21.15;55.06;95321.09;5075044;28;20670;-69
2022/05/27 07:58:17;;;;;;;4.75;3.53;;;;;;;21.27;55.18;95319.75;5074496;28;20204;-69
2022/05/27 08:01:02;;;;;;;3.80;3.50;;;;;;;21.34;55.43;95322.53;5075350;28;20173;-69
2022/05/27 08:03:31;;;;;;;4.38;3.90;;;;;;;21.39;54.84;95316.47;5075206;28;20193;-70
2022/05/27 08:05:59;;;;;;;4.50;4.00;;;;;;;21.43;54.62;95313.63;5108540;28;20189;-69
2022/05/27 08:08:26;;;;;;;6.40;3.90;;;;;;;21.46;54.15;95310.78;5075216;28;20503;-69
2022/05/27 08:10:53;;;;;;;5.38;4.00;;;;;;;21.49;53.24;95318.34;5075102;28;20185;-69
2022/05/27 08:13:20;;;;;;;5.43;3.95;;;;;;;21.50;53.27;95310.75;5073935;28;20223;-69
2022/05/27 08:15:47;;;;;;;6.55;4.40;;;;;;;21.50;53.24;95317.16;5075490;28;20204;-69
2022/05/27 08:18:14;;;;;;;6.07;4.05;;;;;;;21.55;53.48;95310.28;5074943;28;20242;-69
2022/05/27 08:20:43;;;;;;;5.03;3.75;;;;;;;21.69;53.07;95309.31;5074377;28;20208;-69
2022/05/27 08:23:10;;;;;;;5.60;4.38;;;;;;;21.72;52.61;95306.47;5107441;28;20237;-69
2022/05/27 08:25:37;;;;;;;4.05;3.65;;;;;;;21.87;53.04;95307.88;5075015;28;20220;-69
2022/05/27 08:28:05;;;;;;;4.82;4.07;;;;;;;21.94;52.98;95300.59;5074798;28;20185;-69
2022/05/27 08:30:35;;;;;;;6.35;3.92;;;;;;;21.94;51.83;95306.22;5074219;28;20207;-69
2022/05/27 08:33:02;;;;;;;5.45;3.85;;;;;;;21.94;51.92;95290.16;5074612;28;20205;-69
2022/05/27 08:38:18;;;;;;;4.65;3.65;;;;;;;22.17;52.50;95294.28;5074711;28;20589;-69
2022/05/27 08:41:00;;;;;;;5.20;3.80;;;;;;;22.27;51.66;95293.34;5075098;28;20189;-69
2022/05/27 08:43:32;;;;;;;4.32;3.92;;;;;;;22.40;51.00;95293.53;5108350;28;20204;-69
2022/05/27 08:46:05;;;;;;;5.95;3.88;;;;;;;22.45;51.08;95285.44;5077875;28;20216;-69
2022/05/27 08:48:34;;;;;;;4.53;4.07;;;;;;;22.46;50.53;95286.22;5078960;28;20173;-69
2022/05/27 08:51:04;;;;;;;4.32;3.92;;;;;;;22.48;50.38;95276.16;5078749;28;20182;-69
2022/05/27 08:53:38;;;;;;;4.53;3.60;;;;;;;22.50;50.92;95278.53;5078493;28;20208;-69
2022/05/27 09:01:41;;;;;;;6.78;4.85;;;;;;;22.92;51.21;95271.44;5078331;28;20181;-69
2022/05/27 09:04:11;;;;;;;5.35;4.05;;;;;;;23.02;51.06;95269.66;5078468;28;20201;-69
2022/05/27 09:06:41;;;;;;;6.35;4.13;;;;;;;23.09;51.04;95268.72;5111162;28;20197;-69
2022/05/27 09:09:14;;;;;;;6.07;4.57;;;;;;;23.12;50.89;95268.66;5078067;28;20531;-69
2022/05/27 09:11:51;;;;;;;6.60;5.38;;;;;;;23.16;49.60;95262.97;5077205;28;20597;-69
2022/05/27 09:14:20;;;;;;;5.95;4.97;;;;;;;23.25;52.49;95266.03;5077515;28;20204;-69
2022/05/27 09:16:51;;;;;;;5.72;4.55;;;;;;;23.40;49.66;95260.91;5078231;28;20189;-69
2022/05/27 09:19:26;;;;;;;6.18;4.22;;;;;;;23.47;49.37;95264.38;5078537;28;20209;-69
2022/05/27 09:21:59;;;;;;;4.90;4.40;;;;;;;23.51;48.85;95262.28;5077350;28;20232;-69
2022/05/27 09:24:38;;;;;;;4.72;3.90;;;;;;;23.54;50.75;95261.44;5111051;28;20298;-69
2022/05/27 09:27:09;;;;;;;5.95;3.95;;;;;;;23.84;50.62;95253.22;5078054;28;20195;-69
2022/05/27 09:29:49;;;;;;;4.30;3.88;;;;;;;23.83;50.11;95246.78;5078174;28;20568;-69
2022/05/27 09:32:19;;;;;;;4.05;3.60;;;;;;;23.87;50.36;95246.72;5078031;28;20200;-69
2022/05/27 09:34:47;;;;;;;5.43;4.00;;;;;;;23.92;50.67;95235.72;5077757;28;20548;-69
2022/05/27 09:37:21;;;;;;;5.05;4.00;;;;;;;24.04;48.66;95242.72;5077922;28;20239;-69
2022/05/27 09:39:50;;;;;;;7.03;4.15;;;;;;;24.13;50.46;95228.03;5076632;28;20189;-69
2022/05/27 09:42:20;;;;;;;5.90;3.88;;;;;;;24.25;49.49;95219.66;5076866;28;20193;-69
2022/05/27 09:44:52;;;;;;;5.40;3.97;;;;;;;24.45;47.79;95225.28;5077479;28;20212;-69
2022/05/27 09:47:20;;;;;;;6.50;3.60;;;;;;;24.48;48.81;95217.97;5077485;28;20627;-69
2022/05/27 09:49:50;;;;;;;4.10;3.70;;;;;;;24.57;47.23;95218.13;5077001;28;20197;-69
2022/05/27 09:52:16;;;;;;;4.05;3.75;;;;;;;24.57;46.88;95215.31;5077471;28;20189;-69
2022/05/27 09:54:47;;;;;;;6.53;3.83;;;;;;;24.66;47.49;95207.03;5076285;28;20197;-69
2022/05/27 09:57:23;;;;;;;5.72;3.80;;;;;;;24.72;45.58;95212.94;5077261;28;20534;-69
2022/05/27 09:59:53;;;;;;;5.03;3.83;;;;;;;24.70;45.40;95204.13;5076798;28;20193;-69
2022/05/27 10:02:23;;;;;;;9.65;4.20;;;;;;;24.68;46.40;95198.91;5110472;28;20537;-69
2022/05/27 10:04:55;;;;;;;7.47;4.47;;;;;;;24.76;46.71;95205.16;5076512;28;20219;-69
2022/05/27 10:07:33;;;;;;;5.40;4.00;;;;;;;24.92;45.54;95193.09;5077381;28;20192;-69
2022/05/27 10:10:18;;;;;;;4.88;4.47;;;;;;;25.02;46.82;95192.00;5077365;28;20200;-69
2022/05/27 10:12:46;;;;;;;4.63;4.18;;;;;;;25.17;43.96;95189.63;5110381;28;20185;-69
2022/05/27 10:15:25;;;;;;;5.43;3.70;;;;;;;25.20;44.60;95180.25;5110277;28;20189;-69
2022/05/27 10:17:52;;;;;;;4.15;3.70;;;;;;;25.35;45.07;95183.47;5076738;28;20200;-69
2022/05/27 10:20:22;;;;;;;5.85;3.88;;;;;;;25.52;44.91;95176.50;5077397;28;20181;-69
2022/05/27 10:22:59;;;;;;;4.47;4.00;;;;;;;25.62;44.80;95175.41;5075518;28;20243;-69
2022/05/27 10:25:32;;;;;;;4.15;3.50;;;;;;;25.69;43.18;95175.19;5076671;28;20529;-69
2022/05/27 10:28:01;;;;;;;4.63;3.50;;;;;;;25.83;43.06;95168.34;5077060;28;20284;-69
2022/05/27 10:30:30;;;;;;;6.05;3.50;;;;;;;25.93;44.13;95166.44;5077020;28;20185;-69
2022/05/27 10:33:13;;;;;;;4.35;3.72;;;;;;;26.01;42.65;95159.31;5076840;28;20189;-69
2022/05/27 10:35:40;;;;;;;4.18;3.38;;;;;;;26.02;43.37;95160.13;5109842;28;20537;-69
2022/05/27 10:38:29;;;;;;;5.78;3.40;;;;;;;25.95;41.87;95155.47;5109772;28;20197;-69
2022/05/27 10:41:01;;;;;;;5.28;3.63;;;;;;;25.98;41.60;95156.63;5109613;28;20197;-69
2022/05/27 10:43:39;;;;;;;3.75;3.28;;;;;;;25.99;41.91;95149.72;5076886;28;20262;-69
2022/05/27 10:46:09;;;;;;;3.80;3.40;;;;;;;26.03;42.11;95150.38;5075640;28;20231;-69
2022/05/27 10:48:55;;;;;;;4.13;3.40;;;;;;;26.10;40.13;95144.50;5075905;28;20201;-69
2022/05/27 10:51:32;;;;;;;5.30;3.50;;;;;;;26.29;42.07;95137.84;5075764;28;20207;-69
2022/05/27 10:54:12;;;;;;;6.38;3.55;;;;;;;26.36;40.01;95142.44;5076164;28;20185;-69
2022/05/27 10:56:43;;;;;;;4.60;3.10;;;;;;;26.34;40.01;95142.91;5109593;28;20220;-69
2022/05/27 11:02:34;;;;;;;4.97;3.35;;;;;;;26.45;38.81;95124.81;5037806;28;20292;-69
2022/05/27 11:05:16;;;;;;;5.70;3.53;;;;;;;26.52;39.62;95122.56;5073715;28;20233;-69
2022/05/27 11:07:51;;;;;;;4.95;3.75;;;;;;;26.60;38.50;95114.59;5075186;28;20266;-69
2022/05/27 11:10:32;;;;;;;4.97;3.40;;;;;;;26.67;40.24;95113.56;5076277;28;20196;-69
2022/05/27 11:16:23;;;;;;;5.53;3.40;;;;;;;26.67;38.68;95102.25;4998068;28;20223;-69
2022/05/27 11:18:59;;;;;;;7.32;3.92;;;;;;;26.88;38.48;95095.84;5014473;28;20234;-69
2022/05/27 11:21:36;;;;;;;5.38;3.30;;;;;;;27.01;38.25;95090.13;5050097;28;20236;-69
2022/05/27 11:24:24;;;;;;;6.03;3.58;;;;;;;27.04;39.24;95086.38;5075120;28;20204;-69
2022/05/27 11:26:57;;;;;;;4.70;3.45;;;;;;;27.04;38.72;95086.38;5074796;28;20213;-69
2022/05/27 11:29:37;;;;;;;5.65;4.03;;;;;;;27.08;38.68;95076.50;5075544;28;20185;-69
2022/05/27 11:32:15;;;;;;;4.80;3.72;;;;;;;27.16;37.68;95071.38;5075670;28;20213;-69
2022/05/27 11:34:49;;;;;;;4.70;3.83;;;;;;;27.19;36.87;95067.63;5074552;28;20600;-69
2022/05/27 11:37:39;;;;;;;6.40;4.32;;;;;;;27.16;38.02;95062.09;5074436;28;20201;-69
2022/05/27 11:40:13;;;;;;;5.63;3.58;;;;;;;27.21;38.35;95053.03;5074874;28;20200;-69
2022/05/27 11:43:06;;;;;;;9.27;4.22;;;;;;;27.23;35.90;95051.28;5074492;28;20193;-69
2022/05/27 11:45:33;;;;;;;3.90;3.20;;;;;;;27.21;36.40;95053.03;5074815;28;20270;-69
2022/05/27 11:48:03;;;;;;;6.45;3.70;;;;;;;27.25;37.45;95045.97;5074919;28;20196;-69
2022/05/27 11:50:38;;;;;;;4.05;3.47;;;;;;;27.26;36.58;95035.44;5074290;28;20296;-69
2022/05/27 11:53:18;;;;;;;4.53;3.75;;;;;;;27.28;36.84;95033.72;5074478;28;20201;-69
2022/05/27 11:56:00;;;;;;;5.72;4.65;;;;;;;27.30;38.05;95031.22;5074793;28;20193;-69
2022/05/27 11:58:32;;;;;;;4.95;3.70;;;;;;;27.30;36.80;95034.03;5074618;28;20204;-69
2022/05/27 12:01:04;;;;;;;5.88;3.85;;;;;;;27.34;37.42;95025.41;5074509;28;20205;-69
2022/05/27 12:03:39;;;;;;;5.45;3.80;;;;;;;27.36;35.99;95026.53;5074922;28;20220;-69
2022/05/27 12:06:07;;;;;;;6.75;3.80;;;;;;;27.40;36.75;95025.59;5075269;28;20223;-69
2022/05/27 12:08:38;;;;;;;7.47;3.58;;;;;;;27.40;36.96;95023.56;5074566;28;20197;-69
2022/05/27 12:11:09;;;;;;;5.45;3.28;;;;;;;27.47;36.76;95016.84;5074253;28;20205;-69
2022/05/27 12:13:38;;;;;;;8.82;3.30;;;;;;;27.47;36.09;95017.63;5074469;28;20201;-69
2022/05/27 12:16:08;;;;;;;5.60;3.70;;;;;;;27.51;35.62;95011.81;5074182;28;20258;-69
2022/05/27 12:18:40;;;;;;;6.95;3.45;;;;;;;27.48;35.68;95007.84;5074909;28;20173;-69